Time;durP1;ratioP1;P1;durP2;ratioP2;P2;SDS_P1;SDS_P2;PMS_P1;PMS_P2;Temp;Humidity;BMP_temperature;BMP_pressure;BME280_temperature;BME280_humidity;BME280_pressure;Samples;Min_cycle;Max_cycle;Signal;HPM_P1;HPM_P2
2023/07/26 00:00:49;;;;;;;5.15;2.22;;;11.60;99.90;;;;;;5048770;28;20053;-23
2023/07/26 00:03:14;;;;;;;5.10;2.30;;;11.60;99.90;;;;;;5038358;28;20060;-23
2023/07/26 00:05:40;;;;;;;4.10;2.25;;;11.50;99.90;;;;;;5038241;28;20049;-23
2023/07/26 00:08:06;;;;;;;6.07;2.72;;;11.50;99.90;;;;;;5053329;28;20286;-23
2023/07/26 00:10:34;;;;;;;3.92;2.15;;;11.40;99.90;;;;;;5042513;28;20056;-22
2023/07/26 00:13:00;;;;;;;5.20;3.03;;;11.40;99.90;;;;;;5043407;28;20100;-23
2023/07/26 00:15:25;;;;;;;4.07;2.40;;;11.30;99.90;;;;;;5043560;28;20045;-23
2023/07/26 00:17:51;;;;;;;6.97;3.03;;;11.40;99.90;;;;;;5056698;28;20475;-23
2023/07/26 00:20:19;;;;;;;4.70;2.50;;;11.50;99.90;;;;;;5046704;28;20048;-23
2023/07/26 00:22:48;;;;;;;3.78;2.38;;;11.50;99.90;;;;;;5036632;28;20094;-23
2023/07/26 00:25:14;;;;;;;7.18;3.25;;;11.60;99.90;;;;;;5038733;28;20049;-23
2023/07/26 00:27:39;;;;;;;3.65;2.65;;;11.60;99.90;;;;;;5055573;28;20060;-23
2023/07/26 00:30:06;;;;;;;7.20;2.40;;;11.50;99.90;;;;;;5056671;28;20049;-23
2023/07/26 00:32:32;;;;;;;8.30;2.78;;;11.50;99.90;;;;;;5046140;28;20048;-23
2023/07/26 00:34:58;;;;;;;8.73;2.65;;;11.60;99.90;;;;;;5036711;28;20046;-23
2023/07/26 00:37:25;;;;;;;9.85;2.70;;;11.60;99.90;;;;;;5036225;28;20049;-23
2023/07/26 00:39:52;;;;;;;5.35;2.60;;;11.60;99.90;;;;;;5052242;28;20056;-23
2023/07/26 00:42:19;;;;;;;3.58;2.30;;;11.60;99.90;;;;;;5053181;28;20049;-22
2023/07/26 00:44:45;;;;;;;8.77;3.53;;;11.70;99.90;;;;;;5037056;28;20049;-23
2023/07/26 00:47:11;;;;;;;7.15;2.85;;;11.80;99.90;;;;;;5067715;28;20152;-23
2023/07/26 00:49:44;;;;;;;6.47;2.65;;;11.70;99.90;;;;;;5055216;28;20053;-23
2023/07/26 00:52:12;;;;;;;8.10;3.03;;;11.70;99.90;;;;;;5053443;28;20055;-23
2023/07/26 00:54:37;;;;;;;7.10;3.10;;;11.60;99.90;;;;;;5044847;28;20080;-22
2023/07/26 00:57:07;;;;;;;8.32;3.20;;;11.50;99.90;;;;;;5047409;28;20073;-22
2023/07/26 00:59:32;;;;;;;5.15;2.88;;;11.50;99.90;;;;;;5055620;28;20508;-22
2023/07/26 01:01:58;;;;;;;8.57;3.70;;;11.60;99.90;;;;;;5052195;28;20132;-22
2023/07/26 01:04:24;;;;;;;5.63;2.55;;;11.70;99.90;;;;;;5054981;28;20410;-21
2023/07/26 01:07:01;;;;;;;8.65;2.47;;;11.80;99.90;;;;;;5044645;28;20106;-22
2023/07/26 01:10:02;;;;;;;7.32;2.38;;;11.90;99.90;;;;;;5052206;28;20045;-23
2023/07/26 01:12:33;;;;;;;5.50;2.00;;;11.90;99.90;;;;;;5049063;28;20057;-23
2023/07/26 01:15:03;;;;;;;3.65;2.28;;;11.90;99.90;;;;;;5040679;28;20045;-23
2023/07/26 01:17:31;;;;;;;11.23;3.20;;;11.80;99.90;;;;;;5043677;28;20514;-23
2023/07/26 01:19:57;;;;;;;7.78;2.80;;;11.70;99.90;;;;;;5055833;28;20055;-22
2023/07/26 01:22:22;;;;;;;6.07;2.80;;;11.70;99.90;;;;;;5054552;28;20037;-23
2023/07/26 01:24:48;;;;;;;9.27;3.70;;;11.60;99.90;;;;;;5038177;28;20092;-23
2023/07/26 01:27:14;;;;;;;5.60;2.35;;;11.40;99.90;;;;;;5045744;28;20056;-23
2023/07/26 01:29:40;;;;;;;8.07;2.53;;;11.30;99.90;;;;;;5049927;28;20042;-24
2023/07/26 01:32:07;;;;;;;5.88;2.40;;;11.20;99.90;;;;;;5052294;28;20438;-23
2023/07/26 01:34:34;;;;;;;5.93;2.13;;;11.10;99.90;;;;;;5053663;28;20052;-23
2023/07/26 01:37:00;;;;;;;4.03;1.77;;;11.00;99.90;;;;;;5052018;28;20044;-23
2023/07/26 01:39:28;;;;;;;7.97;3.00;;;10.90;99.90;;;;;;5047346;28;20045;-22
2023/07/26 01:41:57;;;;;;;5.78;2.75;;;10.80;99.90;;;;;;5053586;28;20053;-23
2023/07/26 01:44:23;;;;;;;6.03;2.65;;;10.80;99.90;;;;;;5053185;28;20040;-23
2023/07/26 01:46:52;;;;;;;6.88;2.72;;;10.90;99.90;;;;;;5042183;28;20115;-23
2023/07/26 01:49:21;;;;;;;7.55;2.97;;;10.90;99.90;;;;;;5041306;28;20052;-23
2023/07/26 01:51:47;;;;;;;8.52;3.05;;;10.90;99.90;;;;;;5051690;28;20433;-23
2023/07/26 01:54:16;;;;;;;7.35;3.00;;;10.90;99.90;;;;;;5034844;28;20545;-23
2023/07/26 01:56:44;;;;;;;8.50;3.08;;;10.80;99.90;;;;;;5034913;28;20053;-23
2023/07/26 01:59:10;;;;;;;6.28;2.50;;;10.70;99.90;;;;;;5024429;28;20099;-23
2023/07/26 02:01:35;;;;;;;5.20;3.13;;;10.70;99.90;;;;;;5065235;28;20403;-23
2023/07/26 02:04:03;;;;;;;8.18;3.22;;;10.70;99.90;;;;;;5041671;28;20045;-23
2023/07/26 02:06:29;;;;;;;10.85;3.90;;;10.70;99.90;;;;;;5040997;28;20080;-23
2023/07/26 02:08:55;;;;;;;9.50;3.28;;;10.80;99.90;;;;;;5051096;28;20151;-23
2023/07/26 02:11:20;;;;;;;7.68;3.28;;;10.90;99.90;;;;;;5046179;28;20045;-23
2023/07/26 02:13:46;;;;;;;6.10;3.25;;;10.90;99.90;;;;;;5051960;28;20041;-23
2023/07/26 02:16:12;;;;;;;9.23;3.83;;;10.90;99.90;;;;;;5041000;28;20041;-23
2023/07/26 02:18:40;;;;;;;8.25;3.85;;;10.90;99.90;;;;;;5053495;28;20045;-23
2023/07/26 02:21:05;;;;;;;8.45;3.92;;;10.90;99.90;;;;;;5017160;28;20128;-23
2023/07/26 02:23:34;;;;;;;7.50;3.47;;;10.90;99.90;;;;;;5017020;28;20523;-23
2023/07/26 02:25:59;;;;;;;9.35;3.60;;;10.90;99.90;;;;;;5034761;28;20045;-23
2023/07/26 02:28:25;;;;;;;7.60;3.33;;;10.90;99.90;;;;;;5034377;28;20597;-24
2023/07/26 02:30:51;;;;;;;10.50;3.72;;;10.90;99.90;;;;;;5033314;28;20076;-23
2023/07/26 02:33:17;;;;;;;7.97;3.22;;;10.90;99.90;;;;;;5044106;28;20494;-23
2023/07/26 02:35:42;;;;;;;7.85;3.13;;;10.90;99.90;;;;;;5053259;28;20067;-23
2023/07/26 02:38:09;;;;;;;7.35;3.60;;;10.90;99.90;;;;;;5053099;28;20060;-23
2023/07/26 02:40:37;;;;;;;7.00;2.80;;;10.90;99.90;;;;;;5053742;28;20057;-23
2023/07/26 02:43:05;;;;;;;11.30;3.80;;;10.90;99.90;;;;;;5052043;28;20116;-24
2023/07/26 02:45:38;;;;;;;8.95;3.65;;;10.90;99.90;;;;;;5053290;28;20368;-24
2023/07/26 02:48:08;;;;;;;11.02;3.63;;;10.90;99.90;;;;;;5038036;28;20052;-24
2023/07/26 02:50:39;;;;;;;10.23;3.60;;;10.80;99.90;;;;;;5042953;28;20045;-23
2023/07/26 02:53:05;;;;;;;7.32;3.65;;;10.80;99.90;;;;;;5032846;28;20041;-24
2023/07/26 02:55:31;;;;;;;12.63;4.05;;;10.80;99.90;;;;;;5015679;28;20056;-24
2023/07/26 02:57:59;;;;;;;7.65;3.33;;;10.70;99.90;;;;;;5033909;28;20095;-24
2023/07/26 03:00:25;;;;;;;10.43;4.32;;;10.80;99.90;;;;;;5032253;28;20491;-24
2023/07/26 03:02:55;;;;;;;8.70;3.72;;;10.80;99.90;;;;;;5036114;28;20099;-24
2023/07/26 03:05:21;;;;;;;8.10;3.58;;;10.80;99.90;;;;;;5032892;28;20045;-24
2023/07/26 03:07:49;;;;;;;11.13;4.30;;;10.80;99.90;;;;;;5052626;28;20091;-24
2023/07/26 03:10:15;;;;;;;8.77;3.50;;;10.80;99.90;;;;;;5035721;28;20077;-24
2023/07/26 03:12:45;;;;;;;10.38;5.50;;;10.70;99.90;;;;;;5032676;28;20593;-24
2023/07/26 03:15:14;;;;;;;11.48;4.70;;;10.70;99.90;;;;;;5045415;28;20041;-24
2023/07/26 03:17:39;;;;;;;10.93;4.95;;;10.70;99.90;;;;;;5036481;28;20049;-24
2023/07/26 03:20:11;;;;;;;10.90;5.10;;;10.70;99.90;;;;;;5052092;28;20045;-24
2023/07/26 03:22:39;;;;;;;8.88;3.97;;;10.70;99.90;;;;;;5052099;28;20116;-24
2023/07/26 03:25:05;;;;;;;7.18;3.65;;;10.80;99.90;;;;;;5011463;28;20136;-24
2023/07/26 03:27:31;;;;;;;7.10;4.15;;;10.90;99.90;;;;;;5043322;28;20380;-23
2023/07/26 03:29:57;;;;;;;7.95;4.00;;;11.00;99.90;;;;;;5052823;28;20055;-23
2023/07/26 03:32:29;;;;;;;9.05;4.00;;;11.10;99.90;;;;;;5050161;28;20084;-24
2023/07/26 03:34:55;;;;;;;7.95;3.20;;;11.10;99.90;;;;;;5034354;28;20045;-24
2023/07/26 03:37:21;;;;;;;9.18;3.50;;;11.20;99.90;;;;;;5046657;28;20096;-23
2023/07/26 03:39:47;;;;;;;7.03;3.58;;;11.30;99.90;;;;;;5041105;28;20049;-24
2023/07/26 03:42:15;;;;;;;5.88;3.00;;;11.30;99.90;;;;;;5051046;28;20053;-23
2023/07/26 03:44:41;;;;;;;8.73;3.53;;;11.40;99.90;;;;;;5049983;28;20096;-23
2023/07/26 03:47:06;;;;;;;6.38;3.65;;;11.40;99.90;;;;;;5044703;28;20077;-24
2023/07/26 03:49:34;;;;;;;5.95;3.67;;;11.40;99.90;;;;;;5052471;28;20124;-24
2023/07/26 03:52:05;;;;;;;7.25;3.22;;;11.40;99.90;;;;;;5037246;28;20053;-23
2023/07/26 03:54:31;;;;;;;6.97;3.20;;;11.40;99.90;;;;;;5040479;28;20083;-24
2023/07/26 03:56:59;;;;;;;8.98;4.38;;;11.40;99.90;;;;;;5025437;28;20146;-24
2023/07/26 03:59:25;;;;;;;6.90;3.58;;;11.40;99.90;;;;;;5041875;28;20075;-24
2023/07/26 04:01:50;;;;;;;6.25;2.92;;;11.30;99.90;;;;;;5036198;28;20045;-23
2023/07/26 04:04:21;;;;;;;9.38;3.75;;;11.30;99.90;;;;;;5032302;28;20056;-24
2023/07/26 04:06:47;;;;;;;9.50;3.50;;;11.30;99.90;;;;;;5017937;28;20076;-24
2023/07/26 04:09:19;;;;;;;8.60;3.85;;;11.30;99.90;;;;;;5036253;28;20126;-24
2023/07/26 04:11:50;;;;;;;7.90;3.92;;;11.30;99.90;;;;;;5053854;28;20045;-24
2023/07/26 04:14:15;;;;;;;9.27;3.38;;;11.30;99.90;;;;;;5038912;28;20049;-24
2023/07/26 04:16:41;;;;;;;7.22;3.75;;;11.20;99.90;;;;;;5045453;28;20509;-24
2023/07/26 04:19:07;;;;;;;7.05;3.90;;;11.20;99.90;;;;;;5056296;28;20099;-24
2023/07/26 04:21:32;;;;;;;9.50;4.03;;;11.10;99.90;;;;;;5040873;28;20491;-24
2023/07/26 04:24:05;;;;;;;7.25;4.25;;;11.00;99.90;;;;;;5043916;28;20079;-24
2023/07/26 04:26:33;;;;;;;9.20;4.22;;;10.80;99.90;;;;;;5056595;28;20052;-24
2023/07/26 04:29:07;;;;;;;7.20;4.43;;;10.70;99.90;;;;;;5055446;28;20052;-24
2023/07/26 04:31:33;;;;;;;7.97;4.72;;;10.70;99.90;;;;;;5056199;28;20044;-24
2023/07/26 04:33:58;;;;;;;10.85;4.90;;;10.60;99.90;;;;;;5039463;28;20483;-24
2023/07/26 04:36:24;;;;;;;11.15;5.00;;;10.60;99.90;;;;;;5035448;28;20053;-23
2023/07/26 04:38:50;;;;;;;9.02;4.60;;;10.60;99.90;;;;;;5034949;28;20053;-23
2023/07/26 04:41:16;;;;;;;7.78;5.00;;;10.70;99.90;;;;;;5035420;28;20053;-23
2023/07/26 04:43:41;;;;;;;8.65;4.60;;;10.90;99.90;;;;;;5018659;28;20077;-24
2023/07/26 04:46:14;;;;;;;7.10;4.45;;;10.90;99.90;;;;;;5035036;28;20112;-24
2023/07/26 04:48:40;;;;;;;7.72;4.68;;;11.00;99.90;;;;;;5034694;28;20491;-24
2023/07/26 04:51:06;;;;;;;9.85;5.28;;;11.10;99.90;;;;;;5053828;28;20052;-24
2023/07/26 04:53:31;;;;;;;14.73;4.90;;;11.20;99.90;;;;;;5055074;28;20048;-24
2023/07/26 04:55:57;;;;;;;10.48;5.10;;;11.30;99.90;;;;;;5056777;28;20077;-24
2023/07/26 04:58:25;;;;;;;7.53;4.38;;;11.50;99.90;;;;;;5052020;28;20521;-24
2023/07/26 05:00:50;;;;;;;9.70;5.25;;;11.60;99.90;;;;;;5036202;28;20067;-24
2023/07/26 05:03:16;;;;;;;8.00;5.03;;;11.80;99.90;;;;;;5039042;28;20049;-24
2023/07/26 05:05:47;;;;;;;9.18;4.97;;;11.90;99.90;;;;;;5046542;28;20056;-24
2023/07/26 05:08:16;;;;;;;12.23;4.80;;;12.00;99.90;;;;;;5037230;28;20052;-24
2023/07/26 05:10:42;;;;;;;6.40;4.32;;;12.20;99.90;;;;;;5045502;28;20041;-24
2023/07/26 05:13:08;;;;;;;7.43;4.30;;;12.30;99.90;;;;;;5054459;28;20402;-24
2023/07/26 05:15:34;;;;;;;6.93;3.85;;;12.40;99.90;;;;;;5050663;28;20422;-24
2023/07/26 05:17:59;;;;;;;7.25;4.32;;;12.60;99.90;;;;;;5053904;28;20044;-24
2023/07/26 05:20:25;;;;;;;6.13;3.63;;;13.00;99.90;;;;;;5050620;28;20049;-24
2023/07/26 05:22:51;;;;;;;6.43;3.63;;;13.30;99.90;;;;;;5034248;28;20439;-24
2023/07/26 05:25:20;;;;;;;5.97;3.15;;;13.50;99.90;;;;;;5035197;28;20049;-24
2023/07/26 05:27:51;;;;;;;8.63;3.00;;;13.60;99.90;;;;;;5037493;28;20399;-24
2023/07/26 05:30:18;;;;;;;6.65;3.28;;;13.60;99.90;;;;;;5053932;28;20068;-24
2023/07/26 05:32:44;;;;;;;5.45;2.55;;;13.50;99.90;;;;;;5045670;28;20045;-24
2023/07/26 05:35:12;;;;;;;7.80;2.95;;;13.40;99.90;;;;;;5036863;28;20057;-24
2023/07/26 05:37:38;;;;;;;6.05;2.78;;;13.30;99.90;;;;;;5055297;28;20060;-24
2023/07/26 05:40:05;;;;;;;8.80;2.90;;;13.20;99.90;;;;;;5052202;28;20056;-24
2023/07/26 05:42:35;;;;;;;6.85;2.47;;;13.10;99.90;;;;;;5041240;28;20053;-24
2023/07/26 05:45:00;;;;;;;8.18;2.75;;;13.10;99.90;;;;;;5035071;28;20135;-23
2023/07/26 05:47:30;;;;;;;6.93;2.38;;;13.00;99.90;;;;;;5045504;28;20049;-23
2023/07/26 05:49:56;;;;;;;3.92;1.90;;;13.00;99.90;;;;;;5054068;28;20049;-23
2023/07/26 05:52:27;;;;;;;8.13;2.13;;;12.90;99.90;;;;;;5041492;28;20136;-23
2023/07/26 05:54:55;;;;;;;6.05;2.55;;;12.90;99.90;;;;;;5048804;28;20045;-23
2023/07/26 05:57:21;;;;;;;5.13;2.00;;;12.90;99.90;;;;;;5053255;28;20094;-23
2023/07/26 05:59:46;;;;;;;3.20;1.92;;;12.80;99.90;;;;;;5055346;28;20045;-23
2023/07/26 06:02:15;;;;;;;3.22;1.63;;;12.80;99.90;;;;;;5041011;28;20467;-23
2023/07/26 06:04:43;;;;;;;3.22;1.88;;;12.70;99.90;;;;;;5037787;28;20048;-23
2023/07/26 06:07:08;;;;;;;8.55;2.40;;;12.70;99.90;;;;;;5043048;28;20056;-23
2023/07/26 06:09:35;;;;;;;4.07;2.05;;;12.70;99.90;;;;;;5052472;28;20037;-23
2023/07/26 06:12:01;;;;;;;3.53;1.95;;;12.70;99.90;;;;;;5053318;28;20052;-24
2023/07/26 06:14:26;;;;;;;4.20;1.85;;;12.70;99.90;;;;;;5039704;28;20045;-24
2023/07/26 06:16:53;;;;;;;4.82;1.92;;;12.70;99.90;;;;;;5043211;28;20056;-24
2023/07/26 06:19:27;;;;;;;4.93;2.50;;;12.90;99.90;;;;;;5020990;28;20044;-23
2023/07/26 06:21:58;;;;;;;4.47;1.90;;;13.00;99.90;;;;;;5040962;28;20502;-24
2023/07/26 06:24:24;;;;;;;4.60;1.90;;;13.30;99.90;;;;;;5038413;28;20037;-24
2023/07/26 06:26:51;;;;;;;6.10;2.25;;;13.50;99.90;;;;;;5049038;28;20053;-26
2023/07/26 06:29:17;;;;;;;3.20;1.90;;;13.70;99.90;;;;;;5065651;28;20040;-24
2023/07/26 06:31:43;;;;;;;3.85;2.03;;;13.70;99.90;;;;;;5062420;28;20600;-24
2023/07/26 06:34:08;;;;;;;4.10;1.30;;;13.80;99.90;;;;;;5043890;28;20045;-24
2023/07/26 06:36:39;;;;;;;5.18;2.85;;;13.80;99.90;;;;;;5066914;28;20513;-25
2023/07/26 06:39:05;;;;;;;2.42;1.70;;;13.90;99.90;;;;;;5070780;28;20047;-24
2023/07/26 06:41:33;;;;;;;2.53;1.10;;;14.00;99.90;;;;;;5032702;28;20053;-24
2023/07/26 06:43:58;;;;;;;4.20;2.03;;;14.20;99.90;;;;;;5043563;28;20044;-25
2023/07/26 06:46:24;;;;;;;2.60;1.30;;;14.90;99.90;;;;;;5053059;28;20059;-24
2023/07/26 06:48:50;;;;;;;4.88;2.00;;;15.10;99.90;;;;;;5053953;28;20150;-24
2023/07/26 06:51:15;;;;;;;3.13;1.67;;;15.60;22.20;;;;;;5052740;28;20049;-25
2023/07/26 06:53:41;;;;;;;3.75;1.40;;;16.10;99.90;;;;;;5054598;28;20037;-25
2023/07/26 06:56:07;;;;;;;2.85;1.80;;;16.50;1.00;;;;;;5051673;28;20398;-25
2023/07/26 06:58:32;;;;;;;2.92;1.50;;;16.60;99.90;;;;;;5053816;28;20044;-24
2023/07/26 07:00:59;;;;;;;3.50;1.65;;;16.10;99.90;;;;;;5052587;28;20084;-24
2023/07/26 07:03:25;;;;;;;2.92;1.50;;;15.50;99.90;;;;;;5053737;28;20522;-24
2023/07/26 07:05:50;;;;;;;3.58;1.75;;;15.10;99.90;;;;;;5037244;28;20097;-24
2023/07/26 07:08:16;;;;;;;4.68;2.03;;;14.50;1.00;;;;;;5052966;28;20493;-24
2023/07/26 07:10:42;;;;;;;4.57;2.03;;;14.50;99.90;;;;;;5053948;28;20049;-24
2023/07/26 07:13:07;;;;;;;4.85;2.22;;;15.10;99.90;;;;;;5053542;28;20481;-25
2023/07/26 07:15:33;;;;;;;4.50;1.77;;;16.10;37.70;;;;;;5053880;28;20498;-24
2023/07/26 07:17:59;;;;;;;3.50;1.30;;;16.60;99.90;;;;;;5032003;28;20411;-24
2023/07/26 07:20:25;;;;;;;3.72;1.77;;;16.90;99.90;;;;;;5052339;28;20041;-24
2023/07/26 07:22:54;;;;;;;4.50;1.40;;;17.40;99.90;;;;;;5053506;28;20052;-24
2023/07/26 07:25:19;;;;;;;6.00;1.77;;;17.30;4.60;;;;;;5047466;28;20051;-24
2023/07/26 07:27:45;;;;;;;4.18;1.70;;;16.80;1.00;;;;;;5052186;28;20112;-24
2023/07/26 07:30:13;;;;;;;2.92;1.50;;;16.50;99.90;;;;;;5045589;28;20033;-24
2023/07/26 07:32:38;;;;;;;3.25;1.15;;;16.80;99.90;;;;;;5033451;28;20372;-24
2023/07/26 07:35:08;;;;;;;3.72;1.05;;;16.90;15.20;;;;;;5033969;28;20053;-24
2023/07/26 07:37:33;;;;;;;3.15;1.10;;;16.60;1.00;;;;;;5033456;28;20041;-24
2023/07/26 07:40:05;;;;;;;2.17;1.13;;;16.80;93.60;;;;;;5032812;28;20103;-24
2023/07/26 07:42:31;;;;;;;3.28;1.52;;;17.00;99.90;;;;;;5034256;28;20076;-24
2023/07/26 07:44:57;;;;;;;2.67;1.48;;;16.80;99.90;;;;;;5033424;28;20480;-24
2023/07/26 07:47:23;;;;;;;2.33;1.05;;;17.20;99.90;;;;;;5033805;28;20056;-24
2023/07/26 07:49:48;;;;;;;5.10;1.80;;;17.90;99.90;;;;;;5028227;28;20399;-24
2023/07/26 07:52:14;;;;;;;2.53;0.93;;;18.00;94.80;;;;;;5050358;28;20509;-24
2023/07/26 07:54:40;;;;;;;1.95;0.85;;;18.00;99.90;;;;;;5056198;28;20060;-24
2023/07/26 07:57:06;;;;;;;0.95;0.63;;;17.70;7.70;;;;;;5053553;28;20044;-24
2023/07/26 07:59:32;;;;;;;1.23;0.70;;;17.40;1.00;;;;;;5055832;28;20049;-24
2023/07/26 08:01:58;;;;;;;1.30;0.90;;;17.60;1.00;;;;;;5049409;28;20146;-23
2023/07/26 08:04:23;;;;;;;1.95;0.80;;;17.90;1.00;;;;;;5045158;28;20044;-23
2023/07/26 08:06:51;;;;;;;2.20;0.70;;;18.00;99.90;;;;;;5056975;28;20037;-23
2023/07/26 08:09:17;;;;;;;2.10;1.30;;;17.90;99.90;;;;;;5040742;28;20041;-24
2023/07/26 08:11:42;;;;;;;2.10;1.15;;;18.10;99.90;;;;;;5036941;28;20053;-24
2023/07/26 08:14:08;;;;;;;2.83;1.50;;;18.00;1.00;;;;;;5036706;28;20045;-24
2023/07/26 08:16:34;;;;;;;1.65;1.00;;;18.10;99.90;;;;;;5036572;28;20054;-24
2023/07/26 08:19:03;;;;;;;2.40;1.30;;;18.40;99.90;;;;;;5035574;28;20085;-24
2023/07/26 08:21:28;;;;;;;2.83;1.40;;;18.60;1.70;;;;;;5051923;28;20053;-24
2023/07/26 08:23:57;;;;;;;2.08;0.98;;;18.30;54.20;;;;;;5057262;28;20516;-24
2023/07/26 08:26:22;;;;;;;1.95;0.90;;;17.70;1.00;;;;;;5056905;28;20102;-24
2023/07/26 08:28:48;;;;;;;2.47;1.10;;;17.10;1.00;;;;;;5056494;28;20430;-24
2023/07/26 08:31:14;;;;;;;1.63;0.93;;;17.20;99.90;;;;;;5055587;28;20099;-24
2023/07/26 08:33:40;;;;;;;0.93;0.68;;;17.40;99.90;;;;;;5056392;28;20041;-24
2023/07/26 08:36:06;;;;;;;1.85;1.13;;;17.50;25.40;;;;;;5056242;28;20055;-24
2023/07/26 08:38:33;;;;;;;3.28;1.10;;;17.90;99.90;;;;;;5054787;28;20055;-25
2023/07/26 08:41:00;;;;;;;1.77;1.20;;;17.80;1.00;;;;;;5055935;28;20483;-25
2023/07/26 08:43:35;;;;;;;1.48;1.08;;;17.60;99.90;;;;;;5055781;28;20057;-24
2023/07/26 08:46:02;;;;;;;1.80;1.00;;;17.60;99.90;;;;;;5054490;28;20045;-24
2023/07/26 08:48:28;;;;;;;5.18;1.52;;;17.90;99.90;;;;;;5044847;28;20053;-27
2023/07/26 08:50:55;;;;;;;1.65;1.30;;;18.20;99.90;;;;;;5056110;28;20045;-24
2023/07/26 08:53:22;;;;;;;1.98;1.20;;;18.10;1.00;;;;;;5056184;28;20053;-24
2023/07/26 08:55:48;;;;;;;2.10;1.60;;;18.00;45.80;;;;;;5055695;28;20052;-24
2023/07/26 08:58:14;;;;;;;3.13;1.30;;;18.30;99.90;;;;;;5054553;28;20052;-25
2023/07/26 09:00:40;;;;;;;3.05;1.52;;;18.40;99.90;;;;;;5055945;28;20041;-24
2023/07/26 09:03:10;;;;;;;4.00;1.60;;;18.50;1.00;;;;;;5045861;28;20079;-24
2023/07/26 09:05:39;;;;;;;2.63;1.27;;;18.80;99.90;;;;;;5055616;28;20494;-25
2023/07/26 09:08:04;;;;;;;2.30;1.30;;;19.20;1.00;;;;;;5054837;28;20088;-24
2023/07/26 09:10:31;;;;;;;4.50;1.38;;;19.50;1.00;;;;;;5038919;28;20076;-25
2023/07/26 09:13:11;;;;;;;3.45;1.17;;;19.20;99.90;;;;;;5053871;28;20048;-24
2023/07/26 09:15:38;;;;;;;2.78;1.35;;;19.60;99.90;;;;;;5055640;28;20056;-24
2023/07/26 09:18:04;;;;;;;2.97;1.10;;;19.40;99.90;;;;;;5054457;28;20476;-24
2023/07/26 09:20:34;;;;;;;1.88;1.00;;;19.50;99.90;;;;;;5055410;28;20056;-25
2023/07/26 09:23:10;;;;;;;1.70;1.10;;;19.20;1.00;;;;;;5049002;28;20144;-25
2023/07/26 09:25:44;;;;;;;1.95;1.30;;;19.30;99.90;;;;;;5033935;28;20117;-25
2023/07/26 09:28:15;;;;;;;1.92;1.10;;;19.20;76.10;;;;;;5035439;28;20483;-25
2023/07/26 09:30:45;;;;;;;2.22;1.33;;;19.50;99.90;;;;;;5036671;28;20051;-25
2023/07/26 09:33:14;;;;;;;3.55;1.33;;;19.30;20.50;;;;;;5035429;28;20041;-25
2023/07/26 09:35:52;;;;;;;5.25;1.80;;;19.70;99.90;;;;;;5034148;28;20045;-25
2023/07/26 09:38:29;;;;;;;6.18;1.80;;;20.00;99.90;;;;;;5035178;28;20053;-25
2023/07/26 09:40:55;;;;;;;2.42;1.50;;;19.90;1.00;;;;;;5035190;28;20094;-25
2023/07/26 09:43:28;;;;;;;5.18;1.70;;;19.10;99.90;;;;;;5031796;28;20045;-25
2023/07/26 09:46:01;;;;;;;;;;;19.00;1.00;;;;;;5036466;28;20138;-25
2023/07/26 09:48:27;;;;;;;5.10;1.88;;;19.30;99.90;;;;;;5035087;28;19928;-25
2023/07/26 09:50:55;;;;;;;2.67;1.42;;;19.10;99.90;;;;;;5034053;28;20104;-25
2023/07/26 09:53:25;;;;;;;2.17;1.35;;;19.40;91.60;;;;;;5047980;28;20048;-25
2023/07/26 09:55:51;;;;;;;2.38;1.42;;;18.80;99.90;;;;;;5034605;28;20461;-24
2023/07/26 09:58:20;;;;;;;3.65;2.15;;;17.90;97.70;;;;;;5062597;28;20041;-26
2023/07/26 10:00:53;;;;;;;2.38;1.33;;;17.30;90.90;;;;;;5074202;28;20052;-23
2023/07/26 10:03:21;;;;;;;5.25;2.20;;;16.70;1.00;;;;;;5035434;28;20042;-23
2023/07/26 10:05:51;;;;;;;1.95;1.38;;;16.30;99.90;;;;;;5035607;28;20046;-23
2023/07/26 10:08:20;;;;;;;2.95;1.77;;;15.90;99.90;;;;;;5034249;28;20122;-23
2023/07/26 10:10:50;;;;;;;2.53;1.13;;;15.80;15.70;;;;;;5034702;28;20130;-23
2023/07/26 10:13:18;;;;;;;2.20;1.60;;;16.10;99.90;;;;;;5040976;28;20101;-24
2023/07/26 10:15:47;;;;;;;2.33;1.35;;;17.30;99.90;;;;;;5053333;28;20123;-24
2023/07/26 10:18:19;;;;;;;2.22;1.45;;;18.60;1.00;;;;;;5054498;28;20072;-25
2023/07/26 10:20:47;;;;;;;2.22;1.17;;;19.30;99.90;;;;;;5055072;28;20049;-24
2023/07/26 10:23:13;;;;;;;1.88;1.33;;;19.60;99.90;;;;;;5034028;28;20485;-26
2023/07/26 10:25:40;;;;;;;2.97;1.00;;;19.80;99.90;;;;;;5054375;28;20044;-25
2023/07/26 10:28:08;;;;;;;2.67;1.48;;;19.40;1.00;;;;;;5053912;28;20494;-26
2023/07/26 10:30:34;;;;;;;2.53;1.30;;;19.40;99.90;;;;;;5054277;28;20041;-25
2023/07/26 10:33:00;;;;;;;3.08;1.50;;;19.80;1.00;;;;;;5047152;28;20498;-25
2023/07/26 10:35:33;;;;;;;3.35;1.17;;;19.30;99.90;;;;;;5032900;28;20053;-27
2023/07/26 10:38:02;;;;;;;2.38;1.00;;;18.50;99.90;;;;;;5034562;28;20095;-25
2023/07/26 10:40:34;;;;;;;2.10;1.45;;;17.90;1.00;;;;;;5034167;28;20091;-25
2023/07/26 10:43:16;;;;;;;2.78;1.30;;;17.40;99.90;;;;;;5036861;28;20089;-24
2023/07/26 10:45:44;;;;;;;4.33;0.80;;;16.80;1.00;;;;;;5046667;28;20052;-24
2023/07/26 10:48:13;;;;;;;9.05;1.65;;;14.00;99.90;;;;;;5054010;28;20045;-19
2023/07/26 10:50:40;;;;;;;2.97;1.17;;;13.80;99.90;;;;;;5033238;28;20510;-19
2023/07/26 10:53:29;;;;;;;2.97;0.90;;;12.70;16.70;;;;;;5033914;28;20041;-21
2023/07/26 10:56:20;;;;;;;4.30;1.10;;;12.00;99.90;;;;;;5049926;28;20045;-23
2023/07/26 10:58:54;;;;;;;2.30;0.90;;;11.70;99.90;;;;;;5053864;28;20045;-24
2023/07/26 11:01:49;;;;;;;3.95;0.80;;;11.70;99.90;;;;;;5045430;28;20088;-23
2023/07/26 11:04:19;;;;;;;2.35;1.00;;;11.80;99.90;;;;;;5023952;28;20065;-24
2023/07/26 11:06:49;;;;;;;4.05;0.70;;;11.90;99.90;;;;;;5033904;28;20049;-23
2023/07/26 11:09:28;;;;;;;2.47;1.02;;;12.00;99.90;;;;;;5033453;28;20484;-23
2023/07/26 11:12:04;;;;;;;2.83;0.88;;;12.00;99.90;;;;;;5039492;28;20504;-24
2023/07/26 11:14:32;;;;;;;2.70;1.00;;;12.10;99.90;;;;;;5053215;28;20052;-24
2023/07/26 11:17:07;;;;;;;4.63;1.50;;;12.20;99.90;;;;;;5054114;28;20041;-25
2023/07/26 11:19:47;;;;;;;2.50;1.20;;;12.50;99.90;;;;;;5053327;28;20091;-25
2023/07/26 11:22:15;;;;;;;5.55;1.35;;;12.70;99.90;;;;;;5051149;28;21269;-25
2023/07/26 11:24:41;;;;;;;3.13;1.17;;;12.80;99.90;;;;;;5044525;28;20103;-25
2023/07/26 11:27:07;;;;;;;3.20;1.20;;;13.00;99.90;;;;;;5032394;28;20045;-25
2023/07/26 11:29:33;;;;;;;2.72;1.15;;;13.20;99.90;;;;;;5049289;28;20405;-25
2023/07/26 11:31:59;;;;;;;2.50;1.05;;;13.60;99.90;;;;;;5033525;28;20041;-26
2023/07/26 11:34:25;;;;;;;6.22;1.48;;;14.60;99.90;;;;;;5037522;28;20051;-27
2023/07/26 11:36:51;;;;;;;2.67;0.73;;;15.60;99.90;;;;;;5051923;28;20045;-27
2023/07/26 11:39:26;;;;;;;2.60;0.90;;;16.20;99.90;;;;;;5053912;28;20110;-27
2023/07/26 11:41:52;;;;;;;2.83;0.70;;;16.70;99.90;;;;;;5053297;28;20060;-27
2023/07/26 11:44:22;;;;;;;2.85;0.70;;;17.10;99.90;;;;;;5052707;28;20053;-28
2023/07/26 11:46:48;;;;;;;1.70;0.88;;;17.40;99.90;;;;;;5034964;28;20560;-27
2023/07/26 11:49:22;;;;;;;5.28;0.90;;;17.90;99.90;;;;;;5033246;28;20041;-27
2023/07/26 11:51:51;;;;;;;2.80;1.02;;;18.20;1.00;;;;;;5033374;28;20132;-27
2023/07/26 11:54:17;;;;;;;2.88;1.20;;;18.70;99.90;;;;;;5036441;28;20030;-27
2023/07/26 11:56:44;;;;;;;2.20;0.80;;;19.30;1.00;;;;;;5050493;28;20052;-27
2023/07/26 11:59:11;;;;;;;4.25;1.30;;;20.10;99.90;;;;;;5048736;28;20064;-27
2023/07/26 12:01:37;;;;;;;2.20;0.90;;;20.40;1.00;;;;;;5033262;28;20084;-29
2023/07/26 12:04:11;;;;;;;2.13;0.85;;;20.70;1.00;;;;;;5050397;28;20041;-29
2023/07/26 12:06:36;;;;;;;2.00;1.15;;;21.60;99.90;;;;;;5053202;28;20560;-27
2023/07/26 12:09:11;;;;;;;1.90;0.95;;;22.20;2.30;;;;;;5051924;28;20128;-27
2023/07/26 12:11:42;;;;;;;2.80;1.45;;;22.60;99.90;;;;;;5045572;28;20175;-27
2023/07/26 12:14:08;;;;;;;4.95;1.10;;;22.20;1.00;;;;;;5033028;28;20034;-26
2023/07/26 12:16:35;;;;;;;3.20;1.23;;;21.20;1.00;;;;;;5033134;28;20045;-26
2023/07/26 12:19:01;;;;;;;1.85;1.40;;;20.40;51.90;;;;;;5033485;28;20128;-25
2023/07/26 12:21:30;;;;;;;4.22;1.52;;;19.50;99.90;;;;;;5016438;28;20133;-25
2023/07/26 12:24:00;;;;;;;4.10;1.48;;;19.00;99.90;;;;;;5033102;28;20395;-27
2023/07/26 12:26:26;;;;;;;3.78;1.17;;;19.60;99.90;;;;;;5032159;28;20057;-27
2023/07/26 12:28:53;;;;;;;3.65;1.20;;;20.40;1.00;;;;;;5032949;28;20129;-26
2023/07/26 12:31:27;;;;;;;3.20;1.40;;;20.40;99.90;;;;;;5033351;28;20053;-25
2023/07/26 12:33:54;;;;;;;2.85;1.50;;;19.20;99.90;;;;;;5049704;28;20392;-24
2023/07/26 12:36:21;;;;;;;5.95;1.80;;;18.70;16.90;;;;;;5057252;28;20414;-24
2023/07/26 12:38:48;;;;;;;5.25;1.55;;;18.60;99.90;;;;;;5056386;28;20056;-26
2023/07/26 12:41:14;;;;;;;2.40;0.90;;;19.20;1.00;;;;;;5055145;28;20053;-26
2023/07/26 12:43:40;;;;;;;3.33;1.55;;;19.80;99.90;;;;;;5048955;28;20128;-25
2023/07/26 12:46:05;;;;;;;6.10;1.63;;;19.70;1.00;;;;;;5036324;28;20049;-25
2023/07/26 12:48:34;;;;;;;2.10;1.08;;;19.40;99.90;;;;;;5036814;28;20041;-25
2023/07/26 12:51:00;;;;;;;2.10;0.93;;;19.00;26.70;;;;;;5036212;28;20072;-24